Time;durP1;ratioP1;P1;durP2;ratioP2;P2;SDS_P1;SDS_P2;PMS_P1;PMS_P2;Temp;Humidity;BMP_temperature;BMP_pressure;BME280_temperature;BME280_humidity;BME280_pressure;Samples;Min_cycle;Max_cycle;Signal;HPM_P1;HPM_P2
2021/03/15 00:00:52;;;;;;;29.95;5.97;;;;;;;;;;4977927;28;20027;-71
2021/03/15 00:03:19;;;;;;;27.33;6.95;;;;;;;;;;4977245;28;20030;-71
2021/03/15 00:05:45;;;;;;;32.00;7.38;;;;;;;;;;4975071;28;20198;-71
2021/03/15 00:08:11;;;;;;;32.00;8.50;;;;;;;;;;4988768;28;20030;-71
2021/03/15 00:10:38;;;;;;;23.88;6.40;;;;;;;;;;4985450;28;20109;-71
2021/03/15 00:13:04;;;;;;;26.92;6.18;;;;;;;;;;4980210;28;20400;-71
2021/03/15 00:15:31;;;;;;;38.72;7.03;;;;;;;;;;4986735;28;20034;-71
2021/03/15 00:17:57;;;;;;;28.38;6.93;;;;;;;;;;4987099;28;20034;-71
2021/03/15 00:20:23;;;;;;;27.00;5.78;;;;;;;;;;4981777;28;20025;-70
2021/03/15 00:22:50;;;;;;;32.97;6.82;;;;;;;;;;4982636;28;20105;-70
2021/03/15 00:25:16;;;;;;;22.40;5.72;;;;;;;;;;4981651;28;20082;-70
2021/03/15 00:27:43;;;;;;;31.45;7.38;;;;;;;;;;4978410;28;20033;-71
2021/03/15 00:30:13;;;;;;;27.65;7.22;;;;;;;;;;4971629;28;20101;-69
2021/03/15 00:32:40;;;;;;;39.42;6.45;;;;;;;;;;4989125;28;20037;-70
2021/03/15 00:35:08;;;;;;;24.17;6.80;;;;;;;;;;4981993;28;20037;-70
2021/03/15 00:37:34;;;;;;;29.15;7.78;;;;;;;;;;4982397;28;20037;-71
2021/03/15 00:40:00;;;;;;;28.52;7.18;;;;;;;;;;4974625;28;20026;-69
2021/03/15 00:42:26;;;;;;;24.63;5.85;;;;;;;;;;4985534;28;20046;-70
2021/03/15 00:44:52;;;;;;;39.30;6.85;;;;;;;;;;4990267;28;20019;-69
2021/03/15 00:47:18;;;;;;;26.42;6.35;;;;;;;;;;4980012;28;20022;-70
2021/03/15 00:49:44;;;;;;;31.65;7.20;;;;;;;;;;4974408;28;20516;-71
2021/03/15 00:52:10;;;;;;;23.73;5.22;;;;;;;;;;4978418;28;20105;-71
2021/03/15 00:54:36;;;;;;;28.55;7.18;;;;;;;;;;4984880;28;20041;-72
2021/03/15 00:57:02;;;;;;;27.73;7.20;;;;;;;;;;4989379;28;20041;-72
2021/03/15 00:59:28;;;;;;;30.60;8.25;;;;;;;;;;4984923;28;20399;-71
2021/03/15 01:01:54;;;;;;;31.73;6.75;;;;;;;;;;4986164;28;20019;-70
2021/03/15 01:04:20;;;;;;;25.45;6.22;;;;;;;;;;4983878;28;20022;-72
2021/03/15 01:06:47;;;;;;;33.22;6.75;;;;;;;;;;4982808;28;20042;-72
2021/03/15 01:09:13;;;;;;;31.38;7.80;;;;;;;;;;4976508;28;20023;-72
2021/03/15 01:11:39;;;;;;;28.50;8.00;;;;;;;;;;4983072;28;20022;-72
2021/03/15 01:14:06;;;;;;;27.33;7.70;;;;;;;;;;4989278;28;20018;-73
2021/03/15 01:16:32;;;;;;;24.60;7.15;;;;;;;;;;4984977;28;20022;-71
2021/03/15 01:18:58;;;;;;;33.80;7.22;;;;;;;;;;4984463;28;20034;-72
2021/03/15 01:21:24;;;;;;;39.00;10.07;;;;;;;;;;4975068;28;20058;-72
2021/03/15 01:23:50;;;;;;;37.03;7.88;;;;;;;;;;4983955;28;20133;-72
2021/03/15 01:26:16;;;;;;;27.33;8.93;;;;;;;;;;4986656;28;20026;-71
2021/03/15 01:28:42;;;;;;;32.58;7.47;;;;;;;;;;4979733;28;20035;-72
2021/03/15 01:31:09;;;;;;;21.90;6.13;;;;;;;;;;4989015;28;20030;-73
2021/03/15 01:33:35;;;;;;;29.35;7.00;;;;;;;;;;4987970;28;20022;-71
2021/03/15 01:36:01;;;;;;;33.30;6.65;;;;;;;;;;4989267;28;20067;-72
2021/03/15 01:38:27;;;;;;;30.95;7.00;;;;;;;;;;4977831;28;20212;-71
2021/03/15 01:40:53;;;;;;;27.20;8.48;;;;;;;;;;4992432;28;20133;-72
2021/03/15 01:43:19;;;;;;;29.63;7.32;;;;;;;;;;4992860;28;20026;-70
2021/03/15 01:45:45;;;;;;;29.92;8.52;;;;;;;;;;4988491;28;20049;-70
2021/03/15 01:48:13;;;;;;;34.70;9.32;;;;;;;;;;4984988;28;20034;-73
2021/03/15 01:50:43;;;;;;;39.17;10.63;;;;;;;;;;4989627;28;20065;-72
2021/03/15 01:53:09;;;;;;;36.20;9.10;;;;;;;;;;4982571;28;20034;-71
2021/03/15 01:55:36;;;;;;;36.03;9.30;;;;;;;;;;4989800;28;20612;-72
2021/03/15 01:58:04;;;;;;;32.95;9.40;;;;;;;;;;4986031;28;20093;-71
2021/03/15 02:00:30;;;;;;;32.03;9.82;;;;;;;;;;4990319;28;20026;-71
2021/03/15 02:02:58;;;;;;;39.47;10.32;;;;;;;;;;4982298;28;20373;-73
2021/03/15 02:05:25;;;;;;;36.10;10.68;;;;;;;;;;4984206;28;20030;-72
2021/03/15 02:07:51;;;;;;;29.02;10.65;;;;;;;;;;4980011;28;20117;-73
2021/03/15 02:10:17;;;;;;;28.58;9.60;;;;;;;;;;4974789;28;20037;-70
2021/03/15 02:13:00;;;;;;;29.92;10.65;;;;;;;;;;4990430;28;20022;-72
2021/03/15 02:15:32;;;;;;;31.40;10.35;;;;;;;;;;4979729;28;20169;-73
2021/03/15 02:17:59;;;;;;;;;;;;;;;;;;4980654;28;20034;-73
2021/03/15 02:20:27;;;;;;;29.02;10.02;;;;;;;;;;4977190;28;19914;-72
2021/03/15 02:22:53;;;;;;;34.85;11.07;;;;;;;;;;4987488;28;20027;-74
2021/03/15 02:25:38;;;;;;;31.77;9.35;;;;;;;;;;4986286;28;20029;-73
2021/03/15 02:28:13;;;;;;;31.25;10.10;;;;;;;;;;4981349;28;20031;-72
2021/03/15 02:30:51;;;;;;;27.33;8.60;;;;;;;;;;4989284;28;20030;-73
2021/03/15 02:33:29;;;;;;;27.58;9.73;;;;;;;;;;4981840;28;20042;-74
2021/03/15 02:35:57;;;;;;;29.23;8.50;;;;;;;;;;4985682;28;20035;-73
2021/03/15 02:38:24;;;;;;;27.30;8.20;;;;;;;;;;4986866;28;20026;-72
2021/03/15 02:40:58;;;;;;;30.80;9.27;;;;;;;;;;4991752;28;20030;-73
2021/03/15 02:43:27;;;;;;;39.17;8.95;;;;;;;;;;4990132;28;20400;-72
2021/03/15 02:45:56;;;;;;;27.75;8.30;;;;;;;;;;4989221;28;20121;-73
2021/03/15 02:48:22;;;;;;;28.10;8.02;;;;;;;;;;4989006;28;20011;-72
2021/03/15 02:50:49;;;;;;;21.95;8.38;;;;;;;;;;4980283;28;20047;-73
2021/03/15 02:53:17;;;;;;;29.27;7.97;;;;;;;;;;4989331;28;20031;-74
2021/03/15 02:55:46;;;;;;;31.23;8.50;;;;;;;;;;4981538;28;20114;-75
2021/03/15 02:58:12;;;;;;;17.13;6.00;;;;;;;;;;4981144;28;20027;-73
2021/03/15 03:00:39;;;;;;;19.52;6.35;;;;;;;;;;4984858;28;20027;-74
2021/03/15 03:03:06;;;;;;;19.02;6.43;;;;;;;;;;4991767;28;20487;-73
2021/03/15 03:05:33;;;;;;;35.95;7.78;;;;;;;;;;4986855;28;20034;-75
2021/03/15 03:07:59;;;;;;;22.50;6.45;;;;;;;;;;4978513;28;20124;-75
2021/03/15 03:10:26;;;;;;;22.45;6.70;;;;;;;;;;4985928;28;20041;-75
2021/03/15 03:12:52;;;;;;;24.10;6.53;;;;;;;;;;4984880;28;20073;-74
2021/03/15 03:15:21;;;;;;;24.08;5.97;;;;;;;;;;4977630;28;20034;-73
2021/03/15 03:17:48;;;;;;;25.70;7.00;;;;;;;;;;4991191;28;20048;-75
2021/03/15 03:20:15;;;;;;;22.02;6.43;;;;;;;;;;4982329;28;20177;-73
2021/03/15 03:22:42;;;;;;;16.42;5.65;;;;;;;;;;4984631;28;20022;-75
2021/03/15 03:25:13;;;;;;;25.23;6.35;;;;;;;;;;4985385;28;20033;-76
2021/03/15 03:27:39;;;;;;;16.38;5.85;;;;;;;;;;4991835;28;20097;-76
2021/03/15 03:30:06;;;;;;;23.40;7.63;;;;;;;;;;4989569;28;20065;-75
2021/03/15 03:32:33;;;;;;;23.75;6.60;;;;;;;;;;4979245;28;20038;-75
2021/03/15 03:34:59;;;;;;;23.52;5.95;;;;;;;;;;4978814;28;20437;-75
2021/03/15 03:37:25;;;;;;;28.70;5.55;;;;;;;;;;4983950;28;20068;-75
2021/03/15 03:39:51;;;;;;;23.75;5.07;;;;;;;;;;4980845;28;20455;-75
2021/03/15 03:42:18;;;;;;;29.67;5.13;;;;;;;;;;4991714;28;20084;-75
2021/03/15 03:44:44;;;;;;;26.02;5.93;;;;;;;;;;4980733;28;20038;-76
2021/03/15 03:47:10;;;;;;;25.13;5.57;;;;;;;;;;4987882;28;20506;-75
2021/03/15 03:49:36;;;;;;;24.17;4.55;;;;;;;;;;4985296;28;20088;-76
2021/03/15 03:52:04;;;;;;;24.30;5.38;;;;;;;;;;4985000;28;20038;-76
2021/03/15 03:54:30;;;;;;;18.67;4.40;;;;;;;;;;4985926;28;20081;-75
2021/03/15 03:57:04;;;;;;;26.70;4.90;;;;;;;;;;4984958;28;20455;-75
2021/03/15 03:59:31;;;;;;;21.67;4.45;;;;;;;;;;4987811;28;20069;-76
2021/03/15 04:01:59;;;;;;;16.88;4.35;;;;;;;;;;4986759;28;20500;-75
2021/03/15 04:04:27;;;;;;;28.23;5.03;;;;;;;;;;4985298;28;20027;-75
2021/03/15 04:06:54;;;;;;;22.98;4.47;;;;;;;;;;4984150;28;20026;-75
2021/03/15 04:09:30;;;;;;;27.92;4.95;;;;;;;;;;4985837;28;20019;-75
2021/03/15 04:11:59;;;;;;;21.63;4.28;;;;;;;;;;4979212;28;20501;-75
2021/03/15 04:14:27;;;;;;;22.48;6.47;;;;;;;;;;4978691;28;20033;-75
2021/03/15 04:16:54;;;;;;;18.55;4.47;;;;;;;;;;4987228;28;20018;-75
2021/03/15 04:19:24;;;;;;;27.42;5.55;;;;;;;;;;4983621;28;20099;-75
2021/03/15 04:21:51;;;;;;;20.45;4.55;;;;;;;;;;4985105;28;20023;-75
2021/03/15 04:24:19;;;;;;;16.10;4.00;;;;;;;;;;4988998;28;20105;-76
2021/03/15 04:26:45;;;;;;;20.75;4.90;;;;;;;;;;4984203;28;20033;-76
2021/03/15 04:29:12;;;;;;;26.30;5.35;;;;;;;;;;4988351;28;20496;-75
2021/03/15 04:31:38;;;;;;;22.45;3.88;;;;;;;;;;4982176;28;20078;-74
2021/03/15 04:34:05;;;;;;;21.63;4.35;;;;;;;;;;4989453;28;20042;-77
2021/03/15 04:36:31;;;;;;;24.45;4.57;;;;;;;;;;4983935;28;20031;-74
2021/03/15 04:38:58;;;;;;;21.25;4.32;;;;;;;;;;4984530;28;20500;-74
2021/03/15 04:41:24;;;;;;;18.48;5.18;;;;;;;;;;4988112;28;20025;-75
2021/03/15 04:43:50;;;;;;;23.83;3.90;;;;;;;;;;4985916;28;20114;-75
2021/03/15 04:46:17;;;;;;;18.23;4.10;;;;;;;;;;4983976;28;20069;-75
2021/03/15 04:48:44;;;;;;;18.90;4.18;;;;;;;;;;4981364;28;20365;-76
2021/03/15 04:51:10;;;;;;;19.30;4.65;;;;;;;;;;4981050;28;20496;-76
2021/03/15 04:53:38;;;;;;;15.13;3.78;;;;;;;;;;4990552;28;20023;-75
2021/03/15 04:56:08;;;;;;;16.30;4.32;;;;;;;;;;4984735;28;20022;-77
2021/03/15 04:58:35;;;;;;;23.88;4.53;;;;;;;;;;4981762;28;20121;-76
2021/03/15 05:01:02;;;;;;;19.90;3.92;;;;;;;;;;4988817;28;20048;-76
2021/03/15 05:03:29;;;;;;;26.73;5.18;;;;;;;;;;4986929;28;20023;-75
2021/03/15 05:05:55;;;;;;;18.83;3.90;;;;;;;;;;4981260;28;21203;-75
2021/03/15 05:08:24;;;;;;;22.00;4.50;;;;;;;;;;4981301;28;20034;-75
2021/03/15 05:10:50;;;;;;;20.83;5.10;;;;;;;;;;4978778;28;20046;-76
2021/03/15 05:13:16;;;;;;;21.00;4.57;;;;;;;;;;4993759;28;20492;-76
2021/03/15 05:15:43;;;;;;;18.02;4.65;;;;;;;;;;4987534;28;20085;-77
2021/03/15 05:18:11;;;;;;;20.10;4.80;;;;;;;;;;4985581;28;21637;-76
2021/03/15 05:20:38;;;;;;;18.73;4.60;;;;;;;;;;4981561;28;20034;-75
2021/03/15 05:23:06;;;;;;;19.27;3.85;;;;;;;;;;4985753;28;20042;-75
2021/03/15 05:25:33;;;;;;;17.65;3.92;;;;;;;;;;4990630;28;20080;-76
2021/03/15 05:27:59;;;;;;;18.75;4.53;;;;;;;;;;4982731;28;20057;-75
2021/03/15 05:30:26;;;;;;;16.88;3.67;;;;;;;;;;4990268;28;20508;-76
2021/03/15 05:32:53;;;;;;;13.02;3.58;;;;;;;;;;4987614;28;20037;-76
2021/03/15 05:35:20;;;;;;;20.23;4.22;;;;;;;;;;4988643;28;20526;-76
2021/03/15 05:37:47;;;;;;;23.02;6.32;;;;;;;;;;4992527;28;20061;-74
2021/03/15 05:40:23;;;;;;;27.15;3.92;;;;;;;;;;4979329;28;20035;-75
2021/03/15 05:43:10;;;;;;;21.80;3.58;;;;;;;;;;4987916;28;20030;-76
2021/03/15 05:45:41;;;;;;;22.73;4.95;;;;;;;;;;4988364;28;20029;-76
2021/03/15 05:48:13;;;;;;;15.38;3.47;;;;;;;;;;4988080;28;20023;-75
2021/03/15 05:50:39;;;;;;;13.27;3.50;;;;;;;;;;4982382;28;20136;-74
2021/03/15 05:53:24;;;;;;;16.33;3.63;;;;;;;;;;4990457;28;20070;-76
2021/03/15 05:55:56;;;;;;;14.80;3.22;;;;;;;;;;4986786;28;20104;-73
2021/03/15 05:58:22;;;;;;;;;;;;;;;;;;4994007;28;20133;-74
2021/03/15 06:01:11;;;;;;;19.23;3.85;;;;;;;;;;4986750;28;19910;-75
2021/03/15 06:03:37;;;;;;;20.65;3.38;;;;;;;;;;4986714;28;20154;-75
2021/03/15 06:06:03;;;;;;;23.48;3.83;;;;;;;;;;4989683;28;20029;-74
2021/03/15 06:08:31;;;;;;;15.35;4.00;;;;;;;;;;4989779;28;20083;-75
2021/03/15 06:11:04;;;;;;;22.27;3.90;;;;;;;;;;4982126;28;20099;-75
2021/03/15 06:13:32;;;;;;;28.48;4.45;;;;;;;;;;4989920;28;20030;-74
2021/03/15 06:15:58;;;;;;;22.52;3.00;;;;;;;;;;4982431;28;20109;-74
2021/03/15 06:18:25;;;;;;;13.68;3.25;;;;;;;;;;4980513;28;20023;-73
2021/03/15 06:20:51;;;;;;;19.65;4.60;;;;;;;;;;4977423;28;20488;-73
2021/03/15 06:23:18;;;;;;;13.90;2.72;;;;;;;;;;4981498;28;20560;-75
2021/03/15 06:25:46;;;;;;;18.58;2.90;;;;;;;;;;4984247;28;20027;-73
2021/03/15 06:28:12;;;;;;;12.88;2.75;;;;;;;;;;4986876;28;20042;-72
2021/03/15 06:30:39;;;;;;;16.15;3.03;;;;;;;;;;4988284;28;20492;-73
2021/03/15 06:33:05;;;;;;;16.33;3.60;;;;;;;;;;4989995;28;20109;-74
2021/03/15 06:35:34;;;;;;;19.33;3.28;;;;;;;;;;4982232;28;20030;-75
2021/03/15 06:38:01;;;;;;;16.60;3.85;;;;;;;;;;4993810;28;20030;-73
2021/03/15 06:40:27;;;;;;;16.80;2.58;;;;;;;;;;4988269;28;20026;-73
2021/03/15 06:42:54;;;;;;;16.25;4.22;;;;;;;;;;4992477;28;20028;-74
2021/03/15 06:45:21;;;;;;;18.40;2.92;;;;;;;;;;4991329;28;20019;-74
2021/03/15 06:47:49;;;;;;;14.23;2.75;;;;;;;;;;4980321;28;20038;-74
2021/03/15 06:50:16;;;;;;;21.50;3.47;;;;;;;;;;4979813;28;20042;-73
2021/03/15 06:52:51;;;;;;;15.10;2.65;;;;;;;;;;4987569;28;20041;-74
2021/03/15 06:55:20;;;;;;;21.98;3.30;;;;;;;;;;4983126;28;20045;-74
2021/03/15 06:57:46;;;;;;;17.33;3.15;;;;;;;;;;4985110;28;20647;-73
2021/03/15 07:00:12;;;;;;;23.02;3.55;;;;;;;;;;4982560;28;20027;-73
2021/03/15 07:02:39;;;;;;;17.27;3.33;;;;;;;;;;4979356;28;20014;-72
2021/03/15 07:05:10;;;;;;;16.90;3.50;;;;;;;;;;4990065;28;20026;-73
2021/03/15 07:07:37;;;;;;;23.08;3.25;;;;;;;;;;4991479;28;20277;-73
2021/03/15 07:10:13;;;;;;;15.73;3.10;;;;;;;;;;4984560;28;20415;-73
2021/03/15 07:12:40;;;;;;;22.70;3.75;;;;;;;;;;4989962;28;20563;-72
2021/03/15 07:15:06;;;;;;;16.15;3.50;;;;;;;;;;4981562;28;20495;-73
2021/03/15 07:17:32;;;;;;;25.75;3.00;;;;;;;;;;4979293;28;20038;-74
2021/03/15 07:19:58;;;;;;;19.90;4.07;;;;;;;;;;4973828;28;20084;-74
2021/03/15 07:22:26;;;;;;;19.80;2.75;;;;;;;;;;4987311;28;20069;-74
2021/03/15 07:25:11;;;;;;;19.48;3.30;;;;;;;;;;4980727;28;20026;-72
2021/03/15 07:27:39;;;;;;;19.48;3.67;;;;;;;;;;4978756;28;20073;-74
2021/03/15 07:30:23;;;;;;;17.25;3.30;;;;;;;;;;4980242;28;20038;-72
2021/03/15 07:32:49;;;;;;;13.43;3.15;;;;;;;;;;4983002;28;20038;-74
2021/03/15 07:35:24;;;;;;;19.00;2.67;;;;;;;;;;4982219;28;20031;-73
2021/03/15 07:37:50;;;;;;;25.40;3.47;;;;;;;;;;4982918;28;20090;-73
2021/03/15 07:40:36;;;;;;;25.88;3.65;;;;;;;;;;4986135;28;20036;-71
2021/03/15 07:43:02;;;;;;;27.05;3.65;;;;;;;;;;4981152;28;20033;-73
2021/03/15 07:45:32;;;;;;;20.95;3.90;;;;;;;;;;4988573;28;20065;-72
2021/03/15 07:48:05;;;;;;;23.10;3.80;;;;;;;;;;4983830;28;20033;-72
2021/03/15 07:50:31;;;;;;;19.50;3.08;;;;;;;;;;4988554;28;20051;-72
2021/03/15 07:52:57;;;;;;;18.33;3.15;;;;;;;;;;4982088;28;20022;-72
2021/03/15 07:55:34;;;;;;;20.45;3.63;;;;;;;;;;4988136;28;20049;-72
2021/03/15 07:58:00;;;;;;;22.17;3.30;;;;;;;;;;4981359;28;20027;-72
2021/03/15 08:00:26;;;;;;;23.70;3.85;;;;;;;;;;4986830;28;20546;-72
2021/03/15 08:02:52;;;;;;;22.73;3.63;;;;;;;;;;4988200;28;20029;-71
2021/03/15 08:05:18;;;;;;;23.77;3.72;;;;;;;;;;4980402;28;20034;-72
2021/03/15 08:07:44;;;;;;;19.25;3.42;;;;;;;;;;4984865;28;20033;-72
2021/03/15 08:10:11;;;;;;;19.73;3.40;;;;;;;;;;4975933;28;20050;-71
2021/03/15 08:12:38;;;;;;;25.63;4.38;;;;;;;;;;4980411;28;20030;-73
2021/03/15 08:15:06;;;;;;;37.88;4.80;;;;;;;;;;4983138;28;20034;-73
2021/03/15 08:17:36;;;;;;;20.20;3.95;;;;;;;;;;4981279;28;20042;-73
2021/03/15 08:20:03;;;;;;;26.80;4.40;;;;;;;;;;4979272;28;20027;-73
2021/03/15 08:22:32;;;;;;;18.88;3.45;;;;;;;;;;4980950;28;20041;-71
2021/03/15 08:24:59;;;;;;;28.40;4.45;;;;;;;;;;4977490;28;20030;-71
2021/03/15 08:27:29;;;;;;;19.02;3.20;;;;;;;;;;4978656;28;20026;-71
2021/03/15 08:30:00;;;;;;;26.08;4.38;;;;;;;;;;4978520;28;20033;-70
2021/03/15 08:32:27;;;;;;;32.97;5.00;;;;;;;;;;4982524;28;20512;-71
2021/03/15 08:34:54;;;;;;;21.80;3.40;;;;;;;;;;4983263;28;20023;-71
2021/03/15 08:37:39;;;;;;;27.08;5.20;;;;;;;;;;4978715;28;20519;-71
2021/03/15 08:40:05;;;;;;;18.10;2.80;;;;;;;;;;4983727;28;20030;-71
2021/03/15 08:42:31;;;;;;;24.10;3.33;;;;;;;;;;4982300;28;20101;-71
2021/03/15 08:44:58;;;;;;;26.55;3.85;;;;;;;;;;4985332;28;20053;-72
2021/03/15 08:47:43;;;;;;;18.80;3.03;;;;;;;;;;4977893;28;20037;-72
2021/03/15 08:50:27;;;;;;;21.02;3.05;;;;;;;;;;4975635;28;20069;-72
2021/03/15 08:52:54;;;;;;;20.27;2.70;;;;;;;;;;4973493;28;20027;-71
2021/03/15 08:55:38;;;;;;;28.65;5.13;;;;;;;;;;4976363;28;20090;-71
2021/03/15 08:58:24;;;;;;;18.90;3.95;;;;;;;;;;4975792;28;20050;-71
2021/03/15 09:00:56;;;;;;;21.88;2.92;;;;;;;;;;4981313;28;20034;-72
2021/03/15 09:03:41;;;;;;;23.27;3.42;;;;;;;;;;4980251;28;20023;-72
2021/03/15 09:06:07;;;;;;;24.17;4.25;;;;;;;;;;4983266;28;20023;-70
2021/03/15 09:08:52;;;;;;;21.55;3.63;;;;;;;;;;4975083;28;20045;-70
2021/03/15 09:11:38;;;;;;;22.02;3.10;;;;;;;;;;4982887;28;20026;-71
2021/03/15 09:14:16;;;;;;;21.27;3.13;;;;;;;;;;4985455;28;20037;-70
2021/03/15 09:16:45;;;;;;;24.00;4.20;;;;;;;;;;4982212;28;20019;-70
2021/03/15 09:19:23;;;;;;;27.10;3.75;;;;;;;;;;4971786;28;20041;-70
2021/03/15 09:21:50;;;;;;;21.98;3.25;;;;;;;;;;4973767;28;20405;-70
2021/03/15 09:24:34;;;;;;;22.88;4.15;;;;;;;;;;4983028;28;20127;-72
2021/03/15 09:27:01;;;;;;;19.65;3.13;;;;;;;;;;4979807;28;20029;-70
2021/03/15 09:29:27;;;;;;;27.38;4.78;;;;;;;;;;4976736;28;20078;-70
2021/03/15 09:32:11;;;;;;;26.88;4.25;;;;;;;;;;4983764;28;20030;-70
2021/03/15 09:34:37;;;;;;;17.60;3.00;;;;;;;;;;4981117;28;20030;-70
2021/03/15 09:37:04;;;;;;;19.67;2.50;;;;;;;;;;4985816;28;20542;-69
2021/03/15 09:39:31;;;;;;;23.83;3.17;;;;;;;;;;4976736;28;20023;-69
2021/03/15 09:41:58;;;;;;;23.23;3.90;;;;;;;;;;4984575;28;20030;-69
2021/03/15 09:44:42;;;;;;;18.88;3.00;;;;;;;;;;4982594;28;20141;-70
2021/03/15 09:47:09;;;;;;;17.88;2.38;;;;;;;;;;4984488;28;20023;-68
2021/03/15 09:49:36;;;;;;;22.10;2.80;;;;;;;;;;4973326;28;20556;-70
2021/03/15 09:52:28;;;;;;;16.27;2.92;;;;;;;;;;4985700;28;20319;-69
2021/03/15 09:54:56;;;;;;;13.38;2.60;;;;;;;;;;4984569;28;20515;-72
2021/03/15 09:57:22;;;;;;;34.05;3.58;;;;;;;;;;4990403;28;20021;-71
2021/03/15 09:59:49;;;;;;;21.83;3.45;;;;;;;;;;4987346;28;20030;-68
2021/03/15 10:02:15;;;;;;;19.60;3.10;;;;;;;;;;4982181;28;20038;-70
2021/03/15 10:04:42;;;;;;;18.33;2.85;;;;;;;;;;4988410;28;20018;-68
2021/03/15 10:07:11;;;;;;;27.35;3.25;;;;;;;;;;4992558;28;20307;-69
2021/03/15 10:09:39;;;;;;;25.85;3.97;;;;;;;;;;4976067;28;20031;-69
2021/03/15 10:12:06;;;;;;;15.27;3.45;;;;;;;;;;4986672;28;20027;-69
2021/03/15 10:14:33;;;;;;;24.20;4.05;;;;;;;;;;4985536;28;20031;-69
2021/03/15 10:17:01;;;;;;;16.73;3.63;;;;;;;;;;4982655;28;20504;-69
2021/03/15 10:19:29;;;;;;;30.23;3.05;;;;;;;;;;4980288;28;20027;-69
2021/03/15 10:21:56;;;;;;;27.70;4.00;;;;;;;;;;4987143;28;20041;-69
2021/03/15 10:24:32;;;;;;;24.30;2.72;;;;;;;;;;4982939;28;20030;-69
2021/03/15 10:26:58;;;;;;;18.55;2.80;;;;;;;;;;4983302;28;20108;-69
2021/03/15 10:29:25;;;;;;;19.15;2.75;;;;;;;;;;4982047;28;20030;-69
2021/03/15 10:31:51;;;;;;;22.00;3.83;;;;;;;;;;5001840;28;20034;-69
2021/03/15 10:34:17;;;;;;;14.23;2.53;;;;;;;;;;4984504;28;20038;-68
2021/03/15 10:36:43;;;;;;;28.90;3.38;;;;;;;;;;4984027;28;20054;-72
2021/03/15 10:39:10;;;;;;;13.45;2.40;;;;;;;;;;4981808;28;20031;-69
2021/03/15 10:41:40;;;;;;;11.85;2.63;;;;;;;;;;4985570;28;20022;-69
2021/03/15 10:44:06;;;;;;;17.30;2.25;;;;;;;;;;4985368;28;20058;-69
2021/03/15 10:46:45;;;;;;;19.13;2.65;;;;;;;;;;4981580;28;20035;-69
2021/03/15 10:49:24;;;;;;;23.98;3.20;;;;;;;;;;4980760;28;20092;-70
2021/03/15 10:51:52;;;;;;;13.35;2.58;;;;;;;;;;4981676;28;20054;-68
2021/03/15 10:54:32;;;;;;;23.13;3.47;;;;;;;;;;4990425;28;20112;-71
2021/03/15 10:57:11;;;;;;;20.55;2.85;;;;;;;;;;4980862;28;20615;-68
2021/03/15 10:59:38;;;;;;;21.75;3.30;;;;;;;;;;4992180;28;20499;-69
2021/03/15 11:02:04;;;;;;;23.55;3.47;;;;;;;;;;4983351;28;20034;-69
2021/03/15 11:04:37;;;;;;;24.23;3.20;;;;;;;;;;4992649;28;20026;-70
2021/03/15 11:07:23;;;;;;;19.35;2.92;;;;;;;;;;4986854;28;20087;-70
2021/03/15 11:09:53;;;;;;;17.35;2.42;;;;;;;;;;4985506;28;20602;-69
2021/03/15 11:12:35;;;;;;;24.15;3.00;;;;;;;;;;4983714;28;20490;-68
2021/03/15 11:15:11;;;;;;;26.50;3.42;;;;;;;;;;4978738;28;20022;-70
2021/03/15 11:17:37;;;;;;;20.17;2.65;;;;;;;;;;4985877;28;20041;-70
2021/03/15 11:20:05;;;;;;;27.17;3.17;;;;;;;;;;4975958;28;20141;-68
2021/03/15 11:22:44;;;;;;;18.17;3.05;;;;;;;;;;4994210;28;20010;-68
2021/03/15 11:25:10;;;;;;;19.90;2.30;;;;;;;;;;4979141;28;20038;-69
2021/03/15 11:27:36;;;;;;;24.88;2.88;;;;;;;;;;4991899;28;20114;-70
2021/03/15 11:30:03;;;;;;;15.52;2.65;;;;;;;;;;4988283;28;20092;-68
2021/03/15 11:32:29;;;;;;;23.25;3.35;;;;;;;;;;4984298;28;20038;-68
2021/03/15 11:34:55;;;;;;;13.35;2.58;;;;;;;;;;4982140;28;20050;-69
2021/03/15 11:37:28;;;;;;;14.68;3.17;;;;;;;;;;4987926;28;20113;-70
2021/03/15 11:39:54;;;;;;;28.70;4.20;;;;;;;;;;4989765;28;20045;-70
2021/03/15 11:42:27;;;;;;;18.45;3.30;;;;;;;;;;4987156;28;20224;-69
2021/03/15 11:44:53;;;;;;;18.38;3.47;;;;;;;;;;4983656;28;20033;-68
2021/03/15 11:47:19;;;;;;;13.25;2.30;;;;;;;;;;4990438;28;20022;-68
2021/03/15 11:49:45;;;;;;;14.32;2.75;;;;;;;;;;4987671;28;20019;-70
2021/03/15 11:52:12;;;;;;;23.17;3.40;;;;;;;;;;4989203;28;20019;-70
2021/03/15 11:54:38;;;;;;;19.80;2.40;;;;;;;;;;4991570;28;20031;-68
2021/03/15 11:57:04;;;;;;;16.45;2.67;;;;;;;;;;4991571;28;20042;-68
2021/03/15 11:59:30;;;;;;;17.08;2.70;;;;;;;;;;4981292;28;20030;-67
2021/03/15 12:01:56;;;;;;;29.15;3.90;;;;;;;;;;4982359;28;20091;-69
2021/03/15 12:04:22;;;;;;;16.25;2.72;;;;;;;;;;4982460;28;20022;-70
2021/03/15 12:06:48;;;;;;;19.80;4.03;;;;;;;;;;4981137;28;20034;-69
2021/03/15 12:09:15;;;;;;;16.35;3.08;;;;;;;;;;4988547;28;20514;-69
2021/03/15 12:11:42;;;;;;;22.73;3.85;;;;;;;;;;4983901;28;20029;-68
2021/03/15 12:14:08;;;;;;;34.35;4.35;;;;;;;;;;4979470;28;20032;-68
2021/03/15 12:16:34;;;;;;;19.90;2.58;;;;;;;;;;4981725;28;20026;-69
2021/03/15 12:19:00;;;;;;;18.48;3.38;;;;;;;;;;4989001;28;20078;-68
2021/03/15 12:21:26;;;;;;;16.55;3.03;;;;;;;;;;4985169;28;20547;-69
2021/03/15 12:23:52;;;;;;;18.92;2.45;;;;;;;;;;4984994;28;20010;-68
2021/03/15 12:26:19;;;;;;;23.40;2.80;;;;;;;;;;4982961;28;20014;-67
2021/03/15 12:28:45;;;;;;;19.30;3.10;;;;;;;;;;4983707;28;20025;-69
2021/03/15 12:31:11;;;;;;;23.50;3.10;;;;;;;;;;4984231;28;20038;-69
2021/03/15 12:33:37;;;;;;;19.50;2.97;;;;;;;;;;4978503;28;20031;-68
2021/03/15 12:36:04;;;;;;;22.58;3.58;;;;;;;;;;4984330;28;20019;-68
2021/03/15 12:38:30;;;;;;;33.47;4.50;;;;;;;;;;4979550;28;20551;-70
2021/03/15 12:40:56;;;;;;;20.60;3.50;;;;;;;;;;4981816;28;20520;-70
2021/03/15 12:43:22;;;;;;;23.58;4.00;;;;;;;;;;4974123;28;20089;-70
2021/03/15 12:45:48;;;;;;;27.45;3.20;;;;;;;;;;4983527;28;20026;-69
2021/03/15 12:48:14;;;;;;;20.52;2.60;;;;;;;;;;4984002;28;20026;-69
2021/03/15 12:50:40;;;;;;;14.95;2.95;;;;;;;;;;4983316;28;20436;-69
2021/03/15 12:53:06;;;;;;;21.77;4.43;;;;;;;;;;4986522;28;20709;-70
2021/03/15 12:55:32;;;;;;;22.63;3.90;;;;;;;;;;4982539;28;20038;-69
2021/03/15 12:57:58;;;;;;;25.17;3.78;;;;;;;;;;4982458;28;20034;-70
2021/03/15 13:00:24;;;;;;;18.70;3.35;;;;;;;;;;4977937;28;20019;-69
2021/03/15 13:02:52;;;;;;;32.80;4.25;;;;;;;;;;4983293;28;20097;-69
2021/03/15 13:05:18;;;;;;;24.52;4.28;;;;;;;;;;4985119;28;20022;-68
2021/03/15 13:07:44;;;;;;;24.73;4.53;;;;;;;;;;4980649;28;20062;-68
2021/03/15 13:10:10;;;;;;;28.25;5.50;;;;;;;;;;4982410;28;20055;-70
2021/03/15 13:12:36;;;;;;;24.85;4.03;;;;;;;;;;4986521;28;20097;-70
2021/03/15 13:15:03;;;;;;;34.65;5.88;;;;;;;;;;4984948;28;20034;-70
2021/03/15 13:17:29;;;;;;;20.25;3.45;;;;;;;;;;4986446;28;20113;-69
2021/03/15 13:19:55;;;;;;;32.63;4.80;;;;;;;;;;4983346;28;20070;-69
2021/03/15 13:22:21;;;;;;;27.63;4.03;;;;;;;;;;4984710;28;20089;-67
2021/03/15 13:24:48;;;;;;;21.65;3.65;;;;;;;;;;4982641;28;20026;-68
2021/03/15 13:27:14;;;;;;;32.67;5.43;;;;;;;;;;4985947;28;20578;-68
2021/03/15 13:29:40;;;;;;;33.15;5.18;;;;;;;;;;4980712;28;20026;-68
2021/03/15 13:32:06;;;;;;;22.40;3.90;;;;;;;;;;4983830;28;20110;-68
2021/03/15 13:34:32;;;;;;;20.95;3.83;;;;;;;;;;4990717;28;20026;-70
2021/03/15 13:36:58;;;;;;;20.35;3.75;;;;;;;;;;4987903;28;20022;-68
2021/03/15 13:39:26;;;;;;;32.75;4.18;;;;;;;;;;4986415;28;20082;-68
2021/03/15 13:41:52;;;;;;;18.80;3.17;;;;;;;;;;4984860;28;20093;-69
2021/03/15 13:44:18;;;;;;;20.38;3.67;;;;;;;;;;4986154;28;20030;-70
2021/03/15 13:46:44;;;;;;;21.58;3.75;;;;;;;;;;4993500;28;20022;-68
2021/03/15 13:49:10;;;;;;;22.08;3.45;;;;;;;;;;4990971;28;20081;-68
2021/03/15 13:51:36;;;;;;;23.95;4.97;;;;;;;;;;4992791;28;20046;-69
2021/03/15 13:54:05;;;;;;;19.58;3.35;;;;;;;;;;4984035;28;20053;-68
2021/03/15 13:56:31;;;;;;;20.95;4.60;;;;;;;;;;4986343;28;20030;-68
2021/03/15 13:58:57;;;;;;;18.92;4.55;;;;;;;;;;4979552;28;20099;-68
2021/03/15 14:01:23;;;;;;;30.13;4.85;;;;;;;;;;4983937;28;20018;-72
2021/03/15 14:03:49;;;;;;;22.75;4.40;;;;;;;;;;4982210;28;20023;-69
2021/03/15 14:06:15;;;;;;;18.77;3.53;;;;;;;;;;4980612;28;20019;-69
2021/03/15 14:08:41;;;;;;;19.65;3.55;;;;;;;;;;4981346;28;20093;-69
2021/03/15 14:11:07;;;;;;;17.10;2.85;;;;;;;;;;4984742;28;20370;-68
2021/03/15 14:13:33;;;;;;;25.45;3.80;;;;;;;;;;4978192;28;20023;-68
2021/03/15 14:16:00;;;;;;;26.83;3.58;;;;;;;;;;4983608;28;20093;-69
2021/03/15 14:18:26;;;;;;;27.27;3.63;;;;;;;;;;4984445;28;20444;-68
2021/03/15 14:20:52;;;;;;;21.23;3.60;;;;;;;;;;4988380;28;20502;-70
2021/03/15 14:23:18;;;;;;;28.02;3.75;;;;;;;;;;4982453;28;20027;-68
2021/03/15 14:25:44;;;;;;;16.65;2.90;;;;;;;;;;4982976;28;20026;-70
2021/03/15 14:28:11;;;;;;;25.88;3.85;;;;;;;;;;4982766;28;20108;-69
2021/03/15 14:30:37;;;;;;;22.92;3.50;;;;;;;;;;4982663;28;20019;-69
2021/03/15 14:33:03;;;;;;;30.17;3.58;;;;;;;;;;4982111;28;20031;-68
2021/03/15 14:35:29;;;;;;;20.65;3.05;;;;;;;;;;4983345;28;20511;-68
2021/03/15 14:37:55;;;;;;;27.02;4.38;;;;;;;;;;4983003;28;20029;-67